Adirondack Rgnl Information

FAA: SLK - ICAO: KSLK

Adirondack Rgnl (Airport) Location

State New York
County Franklin
City Saranac Lake
Adirondack Rgnl (Airport) is 4 miles northwest of Saranac Lake, NY.
Latitude 44-23-07.1090N
Longitude 074-12-22.2530W
Elevation 1,662ft

Adirondack Rgnl METARs

METAR KSLK 190151Z AUTO 00000KT 10SM CLR M25/M27 A2997 RMK AO2 SLP196 T12501272
Altimeter 29.97"
Temperature -25.0°C (-13.0°F)
Wind 0° at 0KT
Clouds Skies are clear.
Visibility 10.0mi
Time observed: 2022-01-19T01:51:00Z

Adirondack Rgnl (Airport) Details

Status Operational
Activation December 1942
Ownership Public
Usage Public
Chart MONTREAL
ATC on-site No
Beacon schedule sunset-sunrise
Beacon color clear green

Adirondack Rgnl (Airport) Contacts

Owner TOWN OF HARRIETSTOWN
Owner address 39 MAIN STREET, SARANAC LAKE, NY 12983
Owner phone 518-891-1470
Manager JOHN H. TALMAGE
Manager address 2953 SOUND AVE, RIVERHEAD, NY 11901
Manager phone 631-369-8497

Adirondack Rgnl Radio Frequencies

Adirondack Rgnl (Airport) Radio Frequencies

UNICOM 123
Common traffic advisory frequency (CTAF) 123